sensor_id;sensor_type;location;lat;lon;timestamp;P1;durP1;ratioP1;P2;durP2;ratioP2
1258;SDS011;619;51.472;6.628;2023-04-24T00:01:07;2.60;;;1.73;;
1258;SDS011;619;51.472;6.628;2023-04-24T00:03:34;1.90;;;1.67;;
1258;SDS011;619;51.472;6.628;2023-04-24T00:05:59;2.43;;;1.80;;
1258;SDS011;619;51.472;6.628;2023-04-24T00:08:25;3.83;;;1.63;;
1258;SDS011;619;51.472;6.628;2023-04-24T00:10:51;3.13;;;2.00;;
1258;SDS011;619;51.472;6.628;2023-04-24T00:13:19;3.80;;;1.97;;
1258;SDS011;619;51.472;6.628;2023-04-24T00:15:45;3.40;;;2.00;;
1258;SDS011;619;51.472;6.628;2023-04-24T00:18:12;2.77;;;2.47;;
1258;SDS011;619;51.472;6.628;2023-04-24T00:20:38;2.80;;;2.10;;
1258;SDS011;619;51.472;6.628;2023-04-24T00:23:06;3.33;;;2.37;;
1258;SDS011;619;51.472;6.628;2023-04-24T00:25:32;2.93;;;1.60;;
1258;SDS011;619;51.472;6.628;2023-04-24T00:28:00;2.20;;;1.87;;
1258;SDS011;619;51.472;6.628;2023-04-24T00:30:28;3.00;;;2.40;;
1258;SDS011;619;51.472;6.628;2023-04-24T00:32:57;2.50;;;2.10;;
1258;SDS011;619;51.472;6.628;2023-04-24T00:35:25;3.57;;;2.33;;
1258;SDS011;619;51.472;6.628;2023-04-24T00:37:51;2.67;;;2.47;;
1258;SDS011;619;51.472;6.628;2023-04-24T00:40:16;2.77;;;2.53;;
1258;SDS011;619;51.472;6.628;2023-04-24T00:42:47;3.60;;;2.67;;
1258;SDS011;619;51.472;6.628;2023-04-24T00:45:15;4.23;;;2.90;;
1258;SDS011;619;51.472;6.628;2023-04-24T00:47:41;4.93;;;2.93;;
1258;SDS011;619;51.472;6.628;2023-04-24T00:50:07;4.60;;;2.87;;
1258;SDS011;619;51.472;6.628;2023-04-24T00:52:36;4.27;;;3.10;;
1258;SDS011;619;51.472;6.628;2023-04-24T00:55:02;4.70;;;3.10;;
1258;SDS011;619;51.472;6.628;2023-04-24T00:57:30;5.20;;;3.40;;
1258;SDS011;619;51.472;6.628;2023-04-24T00:59:56;7.37;;;3.87;;
1258;SDS011;619;51.472;6.628;2023-04-24T01:02:22;5.50;;;3.80;;
1258;SDS011;619;51.472;6.628;2023-04-24T01:04:49;4.80;;;4.37;;
1258;SDS011;619;51.472;6.628;2023-04-24T01:07:17;6.07;;;4.00;;
1258;SDS011;619;51.472;6.628;2023-04-24T01:09:46;5.80;;;4.43;;
1258;SDS011;619;51.472;6.628;2023-04-24T01:12:20;4.47;;;4.03;;
1258;SDS011;619;51.472;6.628;2023-04-24T01:14:46;7.63;;;4.97;;
1258;SDS011;619;51.472;6.628;2023-04-24T01:17:14;4.80;;;4.40;;
1258;SDS011;619;51.472;6.628;2023-04-24T01:19:40;4.70;;;4.10;;
1258;SDS011;619;51.472;6.628;2023-04-24T01:22:13;6.20;;;4.53;;
1258;SDS011;619;51.472;6.628;2023-04-24T01:24:40;5.90;;;4.53;;
1258;SDS011;619;51.472;6.628;2023-04-24T01:27:09;5.07;;;4.57;;
1258;SDS011;619;51.472;6.628;2023-04-24T01:29:35;5.50;;;5.00;;
1258;SDS011;619;51.472;6.628;2023-04-24T01:32:03;7.47;;;5.77;;
1258;SDS011;619;51.472;6.628;2023-04-24T01:34:29;5.07;;;4.53;;
1258;SDS011;619;51.472;6.628;2023-04-24T01:36:55;5.80;;;5.20;;
1258;SDS011;619;51.472;6.628;2023-04-24T01:39:21;7.13;;;6.10;;
1258;SDS011;619;51.472;6.628;2023-04-24T01:41:51;6.63;;;5.87;;
1258;SDS011;619;51.472;6.628;2023-04-24T01:44:17;9.93;;;6.13;;
1258;SDS011;619;51.472;6.628;2023-04-24T01:46:48;6.23;;;5.73;;
1258;SDS011;619;51.472;6.628;2023-04-24T01:49:18;7.33;;;5.53;;
1258;SDS011;619;51.472;6.628;2023-04-24T01:51:44;5.80;;;5.20;;
1258;SDS011;619;51.472;6.628;2023-04-24T01:54:10;7.33;;;6.20;;
1258;SDS011;619;51.472;6.628;2023-04-24T01:56:41;6.20;;;5.37;;
1258;SDS011;619;51.472;6.628;2023-04-24T01:59:09;5.57;;;5.07;;
1258;SDS011;619;51.472;6.628;2023-04-24T02:01:36;5.87;;;5.27;;
1258;SDS011;619;51.472;6.628;2023-04-24T02:04:03;6.40;;;5.90;;
1258;SDS011;619;51.472;6.628;2023-04-24T02:06:32;7.60;;;5.93;;
1258;SDS011;619;51.472;6.628;2023-04-24T02:08:58;6.30;;;5.40;;
1258;SDS011;619;51.472;6.628;2023-04-24T02:11:24;6.97;;;6.30;;
1258;SDS011;619;51.472;6.628;2023-04-24T02:13:53;8.97;;;6.37;;
1258;SDS011;619;51.472;6.628;2023-04-24T02:16:21;7.80;;;5.83;;
1258;SDS011;619;51.472;6.628;2023-04-24T02:18:46;8.13;;;6.47;;
1258;SDS011;619;51.472;6.628;2023-04-24T02:21:12;7.63;;;6.83;;
1258;SDS011;619;51.472;6.628;2023-04-24T02:23:37;12.23;;;8.20;;
1258;SDS011;619;51.472;6.628;2023-04-24T02:26:03;8.57;;;6.67;;
1258;SDS011;619;51.472;6.628;2023-04-24T02:28:33;10.30;;;7.40;;
1258;SDS011;619;51.472;6.628;2023-04-24T02:30:59;9.40;;;8.30;;
1258;SDS011;619;51.472;6.628;2023-04-24T02:33:27;8.50;;;7.70;;
1258;SDS011;619;51.472;6.628;2023-04-24T02:35:52;11.43;;;8.37;;
1258;SDS011;619;51.472;6.628;2023-04-24T02:38:20;8.83;;;7.93;;
1258;SDS011;619;51.472;6.628;2023-04-24T02:40:48;12.63;;;8.67;;
1258;SDS011;619;51.472;6.628;2023-04-24T02:43:14;12.60;;;9.40;;
1258;SDS011;619;51.472;6.628;2023-04-24T02:45:39;10.70;;;8.90;;
1258;SDS011;619;51.472;6.628;2023-04-24T02:48:05;9.83;;;8.83;;
1258;SDS011;619;51.472;6.628;2023-04-24T02:50:31;12.67;;;9.50;;
1258;SDS011;619;51.472;6.628;2023-04-24T02:52:57;12.40;;;9.43;;
1258;SDS011;619;51.472;6.628;2023-04-24T02:55:22;12.00;;;8.63;;
1258;SDS011;619;51.472;6.628;2023-04-24T02:57:48;10.40;;;9.30;;
1258;SDS011;619;51.472;6.628;2023-04-24T03:00:13;10.67;;;9.40;;
1258;SDS011;619;51.472;6.628;2023-04-24T03:02:41;12.00;;;8.57;;
1258;SDS011;619;51.472;6.628;2023-04-24T03:05:07;10.83;;;9.70;;
1258;SDS011;619;51.472;6.628;2023-04-24T03:07:36;10.50;;;9.33;;
1258;SDS011;619;51.472;6.628;2023-04-24T03:10:03;16.43;;;10.60;;
1258;SDS011;619;51.472;6.628;2023-04-24T03:12:34;11.97;;;9.87;;
1258;SDS011;619;51.472;6.628;2023-04-24T03:15:00;14.07;;;9.73;;
1258;SDS011;619;51.472;6.628;2023-04-24T03:17:25;15.43;;;10.60;;
1258;SDS011;619;51.472;6.628;2023-04-24T03:19:53;11.97;;;10.23;;
1258;SDS011;619;51.472;6.628;2023-04-24T03:22:19;11.70;;;10.37;;
1258;SDS011;619;51.472;6.628;2023-04-24T03:24:47;12.77;;;11.47;;
1258;SDS011;619;51.472;6.628;2023-04-24T03:27:12;12.70;;;11.40;;
1258;SDS011;619;51.472;6.628;2023-04-24T03:29:38;16.37;;;10.67;;
1258;SDS011;619;51.472;6.628;2023-04-24T03:32:06;15.97;;;11.90;;
1258;SDS011;619;51.472;6.628;2023-04-24T03:34:31;14.47;;;11.07;;
1258;SDS011;619;51.472;6.628;2023-04-24T03:36:59;14.00;;;10.77;;
1258;SDS011;619;51.472;6.628;2023-04-24T03:39:25;12.20;;;11.00;;
1258;SDS011;619;51.472;6.628;2023-04-24T03:41:51;14.83;;;10.97;;
1258;SDS011;619;51.472;6.628;2023-04-24T03:44:19;14.67;;;11.03;;
1258;SDS011;619;51.472;6.628;2023-04-24T03:46:44;17.30;;;10.97;;
1258;SDS011;619;51.472;6.628;2023-04-24T03:49:10;15.27;;;11.50;;
1258;SDS011;619;51.472;6.628;2023-04-24T03:51:38;12.33;;;11.03;;
1258;SDS011;619;51.472;6.628;2023-04-24T03:54:06;13.10;;;11.13;;
1258;SDS011;619;51.472;6.628;2023-04-24T03:56:34;15.73;;;11.37;;
1258;SDS011;619;51.472;6.628;2023-04-24T03:59:04;17.00;;;10.90;;
1258;SDS011;619;51.472;6.628;2023-04-24T04:01:32;13.07;;;11.63;;
1258;SDS011;619;51.472;6.628;2023-04-24T04:04:03;12.27;;;10.57;;
1258;SDS011;619;51.472;6.628;2023-04-24T04:06:33;14.53;;;10.60;;
1258;SDS011;619;51.472;6.628;2023-04-24T04:09:02;11.47;;;9.77;;
1258;SDS011;619;51.472;6.628;2023-04-24T04:11:28;11.40;;;9.90;;
1258;SDS011;619;51.472;6.628;2023-04-24T04:13:53;11.80;;;9.70;;
1258;SDS011;619;51.472;6.628;2023-04-24T04:16:19;12.90;;;10.60;;
1258;SDS011;619;51.472;6.628;2023-04-24T04:18:47;11.57;;;10.37;;
1258;SDS011;619;51.472;6.628;2023-04-24T04:21:15;11.87;;;9.80;;
1258;SDS011;619;51.472;6.628;2023-04-24T04:23:41;14.00;;;8.97;;
1258;SDS011;619;51.472;6.628;2023-04-24T04:26:07;17.33;;;9.80;;
1258;SDS011;619;51.472;6.628;2023-04-24T04:28:33;10.60;;;9.50;;
1258;SDS011;619;51.472;6.628;2023-04-24T04:30:58;12.37;;;10.20;;
1258;SDS011;619;51.472;6.628;2023-04-24T04:33:24;12.37;;;8.90;;
1258;SDS011;619;51.472;6.628;2023-04-24T04:35:52;11.10;;;9.90;;
1258;SDS011;619;51.472;6.628;2023-04-24T04:38:18;10.20;;;8.73;;
1258;SDS011;619;51.472;6.628;2023-04-24T04:40:45;11.40;;;8.90;;
1258;SDS011;619;51.472;6.628;2023-04-24T04:43:13;11.20;;;10.03;;
1258;SDS011;619;51.472;6.628;2023-04-24T04:45:41;10.80;;;9.67;;
1258;SDS011;619;51.472;6.628;2023-04-24T04:48:08;10.30;;;9.30;;
1258;SDS011;619;51.472;6.628;2023-04-24T04:50:36;11.20;;;10.17;;
1258;SDS011;619;51.472;6.628;2023-04-24T04:53:02;9.37;;;8.30;;
1258;SDS011;619;51.472;6.628;2023-04-24T04:55:28;12.00;;;9.50;;
1258;SDS011;619;51.472;6.628;2023-04-24T04:57:53;8.77;;;7.87;;
1258;SDS011;619;51.472;6.628;2023-04-24T05:00:20;9.13;;;8.13;;
1258;SDS011;619;51.472;6.628;2023-04-24T05:02:52;8.40;;;7.60;;
1258;SDS011;619;51.472;6.628;2023-04-24T05:05:18;9.30;;;8.37;;
1258;SDS011;619;51.472;6.628;2023-04-24T05:07:46;10.93;;;9.33;;
1258;SDS011;619;51.472;6.628;2023-04-24T05:10:16;9.60;;;7.90;;
1258;SDS011;619;51.472;6.628;2023-04-24T05:12:42;8.53;;;7.73;;
1258;SDS011;619;51.472;6.628;2023-04-24T05:15:12;8.20;;;7.40;;
1258;SDS011;619;51.472;6.628;2023-04-24T05:17:43;7.23;;;6.53;;
1258;SDS011;619;51.472;6.628;2023-04-24T05:20:11;8.20;;;7.40;;
1258;SDS011;619;51.472;6.628;2023-04-24T05:22:36;7.47;;;6.73;;
1258;SDS011;619;51.472;6.628;2023-04-24T05:25:04;10.90;;;7.77;;
1258;SDS011;619;51.472;6.628;2023-04-24T05:27:33;7.73;;;6.93;;
1258;SDS011;619;51.472;6.628;2023-04-24T05:29:59;8.13;;;7.33;;
1258;SDS011;619;51.472;6.628;2023-04-24T05:32:26;7.97;;;7.27;;
1258;SDS011;619;51.472;6.628;2023-04-24T05:34:54;8.47;;;7.57;;
1258;SDS011;619;51.472;6.628;2023-04-24T05:37:22;7.30;;;6.70;;
1258;SDS011;619;51.472;6.628;2023-04-24T05:39:48;9.60;;;6.70;;
1258;SDS011;619;51.472;6.628;2023-04-24T05:42:13;8.63;;;7.60;;
1258;SDS011;619;51.472;6.628;2023-04-24T05:44:41;9.70;;;8.53;;
1258;SDS011;619;51.472;6.628;2023-04-24T05:47:09;8.33;;;7.53;;
1258;SDS011;619;51.472;6.628;2023-04-24T05:49:35;8.47;;;7.27;;
1258;SDS011;619;51.472;6.628;2023-04-24T05:52:03;8.30;;;6.40;;
1258;SDS011;619;51.472;6.628;2023-04-24T05:54:30;9.87;;;8.57;;
1258;SDS011;619;51.472;6.628;2023-04-24T05:57:00;10.63;;;8.03;;
1258;SDS011;619;51.472;6.628;2023-04-24T05:59:29;8.30;;;7.37;;
1258;SDS011;619;51.472;6.628;2023-04-24T06:01:58;10.80;;;7.97;;
1258;SDS011;619;51.472;6.628;2023-04-24T06:04:25;8.10;;;7.30;;
1258;SDS011;619;51.472;6.628;2023-04-24T06:06:53;9.80;;;8.90;;
1258;SDS011;619;51.472;6.628;2023-04-24T06:09:22;9.57;;;8.60;;
1258;SDS011;619;51.472;6.628;2023-04-24T06:11:48;8.10;;;7.30;;
1258;SDS011;619;51.472;6.628;2023-04-24T06:14:17;8.97;;;8.07;;
1258;SDS011;619;51.472;6.628;2023-04-24T06:16:44;9.17;;;8.27;;
1258;SDS011;619;51.472;6.628;2023-04-24T06:19:09;9.67;;;8.77;;
1258;SDS011;619;51.472;6.628;2023-04-24T06:21:40;10.37;;;8.07;;
1258;SDS011;619;51.472;6.628;2023-04-24T06:24:08;7.57;;;6.77;;
1258;SDS011;619;51.472;6.628;2023-04-24T06:26:33;8.80;;;8.00;;
1258;SDS011;619;51.472;6.628;2023-04-24T06:28:59;7.17;;;6.43;;
1258;SDS011;619;51.472;6.628;2023-04-24T06:31:27;8.70;;;7.87;;
1258;SDS011;619;51.472;6.628;2023-04-24T06:33:55;8.73;;;7.10;;
1258;SDS011;619;51.472;6.628;2023-04-24T06:36:23;7.47;;;6.37;;
1258;SDS011;619;51.472;6.628;2023-04-24T06:38:53;6.10;;;5.50;;
1258;SDS011;619;51.472;6.628;2023-04-24T06:41:22;7.13;;;6.50;;
1258;SDS011;619;51.472;6.628;2023-04-24T06:43:48;5.77;;;5.27;;
1258;SDS011;619;51.472;6.628;2023-04-24T06:46:18;5.40;;;4.90;;
1258;SDS011;619;51.472;6.628;2023-04-24T06:48:51;5.03;;;4.63;;
1258;SDS011;619;51.472;6.628;2023-04-24T06:51:24;7.13;;;4.50;;
1258;SDS011;619;51.472;6.628;2023-04-24T06:53:54;5.40;;;5.00;;
1258;SDS011;619;51.472;6.628;2023-04-24T06:56:21;5.23;;;4.50;;
1258;SDS011;619;51.472;6.628;2023-04-24T06:58:47;5.17;;;4.50;;
1258;SDS011;619;51.472;6.628;2023-04-24T07:01:15;5.03;;;4.50;;
1258;SDS011;619;51.472;6.628;2023-04-24T07:03:43;4.10;;;3.53;;
1258;SDS011;619;51.472;6.628;2023-04-24T07:06:09;3.83;;;3.47;;
1258;SDS011;619;51.472;6.628;2023-04-24T07:08:37;3.20;;;2.90;;
1258;SDS011;619;51.472;6.628;2023-04-24T07:11:05;6.83;;;4.00;;
1258;SDS011;619;51.472;6.628;2023-04-24T07:13:31;3.80;;;2.60;;
1258;SDS011;619;51.472;6.628;2023-04-24T07:15:57;2.23;;;2.00;;
1258;SDS011;619;51.472;6.628;2023-04-24T07:18:24;1.97;;;1.70;;
1258;SDS011;619;51.472;6.628;2023-04-24T07:20:52;1.87;;;1.50;;
1258;SDS011;619;51.472;6.628;2023-04-24T07:23:20;3.20;;;1.53;;
1258;SDS011;619;51.472;6.628;2023-04-24T07:25:46;2.97;;;1.30;;
1258;SDS011;619;51.472;6.628;2023-04-24T07:28:12;1.40;;;1.30;;
1258;SDS011;619;51.472;6.628;2023-04-24T07:30:40;3.90;;;1.67;;
1258;SDS011;619;51.472;6.628;2023-04-24T07:33:08;2.40;;;1.43;;
1258;SDS011;619;51.472;6.628;2023-04-24T07:35:38;1.70;;;1.60;;
1258;SDS011;619;51.472;6.628;2023-04-24T07:38:06;2.13;;;1.67;;
1258;SDS011;619;51.472;6.628;2023-04-24T07:40:32;2.07;;;1.70;;
1258;SDS011;619;51.472;6.628;2023-04-24T07:42:57;1.73;;;1.57;;
1258;SDS011;619;51.472;6.628;2023-04-24T07:45:23;1.87;;;1.53;;
1258;SDS011;619;51.472;6.628;2023-04-24T07:47:51;1.87;;;1.30;;
1258;SDS011;619;51.472;6.628;2023-04-24T07:50:16;3.10;;;1.87;;
1258;SDS011;619;51.472;6.628;2023-04-24T07:52:42;2.73;;;1.50;;
1258;SDS011;619;51.472;6.628;2023-04-24T07:55:10;1.40;;;0.90;;
1258;SDS011;619;51.472;6.628;2023-04-24T07:57:41;1.30;;;1.00;;
1258;SDS011;619;51.472;6.628;2023-04-24T08:00:11;2.43;;;1.10;;
1258;SDS011;619;51.472;6.628;2023-04-24T08:02:37;2.23;;;1.57;;
1258;SDS011;619;51.472;6.628;2023-04-24T08:05:05;1.40;;;0.87;;
1258;SDS011;619;51.472;6.628;2023-04-24T08:07:38;3.77;;;0.77;;
1258;SDS011;619;51.472;6.628;2023-04-24T08:10:03;2.30;;;1.00;;
1258;SDS011;619;51.472;6.628;2023-04-24T08:12:34;2.03;;;1.10;;
1258;SDS011;619;51.472;6.628;2023-04-24T08:14:59;1.40;;;1.00;;
1258;SDS011;619;51.472;6.628;2023-04-24T08:17:25;2.13;;;1.27;;
1258;SDS011;619;51.472;6.628;2023-04-24T08:19:51;2.00;;;0.80;;
1258;SDS011;619;51.472;6.628;2023-04-24T08:22:18;1.43;;;1.03;;
1258;SDS011;619;51.472;6.628;2023-04-24T08:24:45;1.30;;;0.93;;
1258;SDS011;619;51.472;6.628;2023-04-24T08:27:11;2.20;;;0.97;;
1258;SDS011;619;51.472;6.628;2023-04-24T08:29:37;1.20;;;0.90;;
1258;SDS011;619;51.472;6.628;2023-04-24T08:32:04;1.80;;;1.00;;
1258;SDS011;619;51.472;6.628;2023-04-24T08:34:32;2.57;;;0.73;;
1258;SDS011;619;51.472;6.628;2023-04-24T08:36:58;1.30;;;0.97;;
1258;SDS011;619;51.472;6.628;2023-04-24T08:39:29;1.10;;;0.60;;
1258;SDS011;619;51.472;6.628;2023-04-24T08:41:57;1.50;;;0.70;;
1258;SDS011;619;51.472;6.628;2023-04-24T08:44:30;1.30;;;1.07;;
1258;SDS011;619;51.472;6.628;2023-04-24T08:47:01;2.13;;;0.87;;
1258;SDS011;619;51.472;6.628;2023-04-24T08:49:30;1.20;;;0.83;;
1258;SDS011;619;51.472;6.628;2023-04-24T08:51:57;1.27;;;0.87;;
1258;SDS011;619;51.472;6.628;2023-04-24T08:54:25;1.90;;;1.67;;
1258;SDS011;619;51.472;6.628;2023-04-24T08:56:57;3.37;;;3.07;;
1258;SDS011;619;51.472;6.628;2023-04-24T08:59:28;3.63;;;3.33;;
1258;SDS011;619;51.472;6.628;2023-04-24T09:01:57;7.97;;;4.43;;
1258;SDS011;619;51.472;6.628;2023-04-24T09:04:24;6.77;;;6.07;;
1258;SDS011;619;51.472;6.628;2023-04-24T09:06:57;6.13;;;5.33;;
1258;SDS011;619;51.472;6.628;2023-04-24T09:09:25;5.30;;;4.80;;
1258;SDS011;619;51.472;6.628;2023-04-24T09:11:56;6.43;;;5.70;;
1258;SDS011;619;51.472;6.628;2023-04-24T09:14:22;6.97;;;6.23;;
1258;SDS011;619;51.472;6.628;2023-04-24T09:16:50;4.63;;;4.10;;
1258;SDS011;619;51.472;6.628;2023-04-24T09:19:21;5.23;;;4.73;;
1258;SDS011;619;51.472;6.628;2023-04-24T09:21:49;6.10;;;5.20;;
1258;SDS011;619;51.472;6.628;2023-04-24T09:24:19;6.23;;;4.67;;
1258;SDS011;619;51.472;6.628;2023-04-24T09:26:49;5.60;;;4.37;;
1258;SDS011;619;51.472;6.628;2023-04-24T09:29:22;4.67;;;4.17;;
1258;SDS011;619;51.472;6.628;2023-04-24T09:31:47;4.70;;;4.23;;
1258;SDS011;619;51.472;6.628;2023-04-24T09:34:20;8.30;;;5.67;;
1258;SDS011;619;51.472;6.628;2023-04-24T09:36:52;5.27;;;4.77;;
1258;SDS011;619;51.472;6.628;2023-04-24T09:39:21;5.30;;;4.80;;
1258;SDS011;619;51.472;6.628;2023-04-24T09:41:50;7.20;;;4.70;;
1258;SDS011;619;51.472;6.628;2023-04-24T09:44:26;5.80;;;5.20;;
1258;SDS011;619;51.472;6.628;2023-04-24T09:46:57;8.20;;;5.87;;
1258;SDS011;619;51.472;6.628;2023-04-24T09:52:03;10.00;;;6.57;;
1258;SDS011;619;51.472;6.628;2023-04-24T09:54:30;8.13;;;4.60;;
1258;SDS011;619;51.472;6.628;2023-04-24T09:57:01;7.23;;;4.80;;
1258;SDS011;619;51.472;6.628;2023-04-24T09:59:27;6.30;;;5.00;;
1258;SDS011;619;51.472;6.628;2023-04-24T10:01:55;7.30;;;4.33;;
1258;SDS011;619;51.472;6.628;2023-04-24T10:04:24;7.50;;;3.43;;
1258;SDS011;619;51.472;6.628;2023-04-24T10:06:51;7.97;;;4.50;;
1258;SDS011;619;51.472;6.628;2023-04-24T10:09:21;5.73;;;4.03;;
1258;SDS011;619;51.472;6.628;2023-04-24T10:11:49;8.53;;;3.27;;
1258;SDS011;619;51.472;6.628;2023-04-24T10:14:17;7.33;;;4.13;;
1258;SDS011;619;51.472;6.628;2023-04-24T10:16:44;5.63;;;3.57;;
1258;SDS011;619;51.472;6.628;2023-04-24T10:19:12;10.40;;;5.03;;
1258;SDS011;619;51.472;6.628;2023-04-24T10:21:41;8.77;;;4.87;;
1258;SDS011;619;51.472;6.628;2023-04-24T10:24:15;9.30;;;4.30;;
1258;SDS011;619;51.472;6.628;2023-04-24T10:26:49;9.30;;;4.77;;
1258;SDS011;619;51.472;6.628;2023-04-24T10:29:16;5.60;;;4.00;;
1258;SDS011;619;51.472;6.628;2023-04-24T10:31:45;8.43;;;4.53;;
1258;SDS011;619;51.472;6.628;2023-04-24T10:34:14;9.97;;;4.70;;
1258;SDS011;619;51.472;6.628;2023-04-24T10:36:42;7.37;;;3.87;;
1258;SDS011;619;51.472;6.628;2023-04-24T10:39:12;7.03;;;4.17;;
1258;SDS011;619;51.472;6.628;2023-04-24T10:41:43;9.53;;;4.77;;
1258;SDS011;619;51.472;6.628;2023-04-24T10:44:12;11.00;;;4.93;;
1258;SDS011;619;51.472;6.628;2023-04-24T10:46:43;7.17;;;3.97;;
1258;SDS011;619;51.472;6.628;2023-04-24T10:49:28;8.03;;;3.70;;
1258;SDS011;619;51.472;6.628;2023-04-24T10:51:59;10.70;;;4.70;;
1258;SDS011;619;51.472;6.628;2023-04-24T10:54:33;7.27;;;3.90;;
1258;SDS011;619;51.472;6.628;2023-04-24T10:59:45;12.43;;;4.60;;
1258;SDS011;619;51.472;6.628;2023-04-24T11:02:14;10.20;;;4.63;;
1258;SDS011;619;51.472;6.628;2023-04-24T11:04:45;8.50;;;4.30;;
1258;SDS011;619;51.472;6.628;2023-04-24T11:07:19;11.97;;;5.20;;
1258;SDS011;619;51.472;6.628;2023-04-24T11:09:46;13.67;;;5.50;;
1258;SDS011;619;51.472;6.628;2023-04-24T11:12:22;4.70;;;3.60;;
1258;SDS011;619;51.472;6.628;2023-04-24T11:19:53;11.17;;;4.60;;
1258;SDS011;619;51.472;6.628;2023-04-24T11:22:26;8.50;;;3.80;;
1258;SDS011;619;51.472;6.628;2023-04-24T11:24:57;10.10;;;4.43;;
1258;SDS011;619;51.472;6.628;2023-04-24T11:27:32;5.93;;;3.30;;
1258;SDS011;619;51.472;6.628;2023-04-24T11:30:04;5.50;;;3.50;;
1258;SDS011;619;51.472;6.628;2023-04-24T11:34:59;7.30;;;4.37;;
1258;SDS011;619;51.472;6.628;2023-04-24T11:37:33;5.90;;;3.73;;
1258;SDS011;619;51.472;6.628;2023-04-24T11:40:01;9.43;;;4.00;;
1258;SDS011;619;51.472;6.628;2023-04-24T11:42:42;5.77;;;3.33;;
1258;SDS011;619;51.472;6.628;2023-04-24T11:45:12;5.37;;;3.63;;
1258;SDS011;619;51.472;6.628;2023-04-24T11:47:39;9.83;;;3.27;;
1258;SDS011;619;51.472;6.628;2023-04-24T11:50:06;5.57;;;3.37;;
1258;SDS011;619;51.472;6.628;2023-04-24T11:52:39;9.20;;;3.00;;
1258;SDS011;619;51.472;6.628;2023-04-24T11:57:43;5.67;;;2.97;;
1258;SDS011;619;51.472;6.628;2023-04-24T12:00:14;4.43;;;3.27;;
1258;SDS011;619;51.472;6.628;2023-04-24T12:03:10;6.77;;;3.33;;
1258;SDS011;619;51.472;6.628;2023-04-24T12:05:38;8.47;;;3.60;;
1258;SDS011;619;51.472;6.628;2023-04-24T12:08:04;5.53;;;3.33;;
1258;SDS011;619;51.472;6.628;2023-04-24T12:10:30;9.10;;;3.67;;
1258;SDS011;619;51.472;6.628;2023-04-24T12:12:57;4.10;;;3.47;;
1258;SDS011;619;51.472;6.628;2023-04-24T12:15:24;5.27;;;2.60;;
1258;SDS011;619;51.472;6.628;2023-04-24T12:17:50;4.40;;;2.60;;
1258;SDS011;619;51.472;6.628;2023-04-24T12:20:23;4.63;;;3.10;;
1258;SDS011;619;51.472;6.628;2023-04-24T12:22:55;4.93;;;2.60;;
1258;SDS011;619;51.472;6.628;2023-04-24T12:25:25;6.50;;;2.80;;
1258;SDS011;619;51.472;6.628;2023-04-24T12:27:55;2.70;;;2.17;;
1258;SDS011;619;51.472;6.628;2023-04-24T12:30:26;2.13;;;1.50;;
1258;SDS011;619;51.472;6.628;2023-04-24T12:32:57;3.63;;;2.00;;
1258;SDS011;619;51.472;6.628;2023-04-24T12:35:24;3.90;;;1.90;;
1258;SDS011;619;51.472;6.628;2023-04-24T12:37:52;4.80;;;2.20;;
1258;SDS011;619;51.472;6.628;2023-04-24T12:40:24;3.00;;;1.80;;
1258;SDS011;619;51.472;6.628;2023-04-24T12:42:51;3.17;;;2.30;;
1258;SDS011;619;51.472;6.628;2023-04-24T12:45:17;7.67;;;2.60;;
1258;SDS011;619;51.472;6.628;2023-04-24T12:47:48;3.43;;;1.83;;
1258;SDS011;619;51.472;6.628;2023-04-24T12:50:14;4.50;;;2.30;;
1258;SDS011;619;51.472;6.628;2023-04-24T12:52:43;3.00;;;1.30;;
1258;SDS011;619;51.472;6.628;2023-04-24T12:55:11;2.50;;;1.07;;
1258;SDS011;619;51.472;6.628;2023-04-24T12:57:38;2.27;;;1.20;;
1258;SDS011;619;51.472;6.628;2023-04-24T13:00:05;1.50;;;1.40;;
1258;SDS011;619;51.472;6.628;2023-04-24T13:02:32;4.23;;;1.10;;
1258;SDS011;619;51.472;6.628;2023-04-24T13:04:58;4.20;;;1.20;;
1258;SDS011;619;51.472;6.628;2023-04-24T13:07:25;3.57;;;1.30;;
1258;SDS011;619;51.472;6.628;2023-04-24T13:09:53;3.53;;;1.40;;
1258;SDS011;619;51.472;6.628;2023-04-24T13:12:23;4.63;;;1.60;;
1258;SDS011;619;51.472;6.628;2023-04-24T13:14:49;2.90;;;1.30;;
1258;SDS011;619;51.472;6.628;2023-04-24T13:17:17;2.40;;;1.60;;
1258;SDS011;619;51.472;6.628;2023-04-24T13:19:49;4.33;;;1.33;;
1258;SDS011;619;51.472;6.628;2023-04-24T13:22:16;2.77;;;1.30;;
1258;SDS011;619;51.472;6.628;2023-04-24T13:24:44;2.43;;;1.20;;
1258;SDS011;619;51.472;6.628;2023-04-24T13:27:15;4.40;;;1.10;;
1258;SDS011;619;51.472;6.628;2023-04-24T13:29:41;3.57;;;2.00;;
1258;SDS011;619;51.472;6.628;2023-04-24T13:32:09;3.53;;;1.47;;
1258;SDS011;619;51.472;6.628;2023-04-24T13:34:35;3.10;;;1.40;;
1258;SDS011;619;51.472;6.628;2023-04-24T13:37:01;3.27;;;1.30;;
1258;SDS011;619;51.472;6.628;2023-04-24T13:39:35;3.70;;;1.73;;
1258;SDS011;619;51.472;6.628;2023-04-24T13:42:03;2.30;;;1.30;;
1258;SDS011;619;51.472;6.628;2023-04-24T13:44:29;4.17;;;1.60;;
1258;SDS011;619;51.472;6.628;2023-04-24T13:47:00;3.40;;;1.77;;
1258;SDS011;619;51.472;6.628;2023-04-24T13:49:25;2.73;;;1.60;;
1258;SDS011;619;51.472;6.628;2023-04-24T13:51:54;2.47;;;1.43;;
1258;SDS011;619;51.472;6.628;2023-04-24T13:54:21;1.83;;;1.27;;
1258;SDS011;619;51.472;6.628;2023-04-24T13:56:50;4.50;;;1.90;;
1258;SDS011;619;51.472;6.628;2023-04-24T13:59:24;2.77;;;1.20;;
1258;SDS011;619;51.472;6.628;2023-04-24T14:01:53;3.50;;;1.20;;
1258;SDS011;619;51.472;6.628;2023-04-24T14:04:21;1.97;;;1.37;;
1258;SDS011;619;51.472;6.628;2023-04-24T14:06:46;4.00;;;1.70;;
1258;SDS011;619;51.472;6.628;2023-04-24T14:09:12;5.50;;;1.50;;
1258;SDS011;619;51.472;6.628;2023-04-24T14:11:40;3.00;;;1.50;;
1258;SDS011;619;51.472;6.628;2023-04-24T14:14:08;2.90;;;1.90;;
1258;SDS011;619;51.472;6.628;2023-04-24T14:16:33;2.47;;;1.40;;
1258;SDS011;619;51.472;6.628;2023-04-24T14:18:59;2.30;;;1.57;;
1258;SDS011;619;51.472;6.628;2023-04-24T14:21:29;3.80;;;1.73;;
1258;SDS011;619;51.472;6.628;2023-04-24T14:23:57;4.57;;;1.40;;
1258;SDS011;619;51.472;6.628;2023-04-24T14:26:23;7.33;;;2.20;;
1258;SDS011;619;51.472;6.628;2023-04-24T14:28:49;2.63;;;1.90;;
1258;SDS011;619;51.472;6.628;2023-04-24T14:31:15;3.27;;;2.17;;
1258;SDS011;619;51.472;6.628;2023-04-24T14:33:41;2.37;;;1.53;;
1258;SDS011;619;51.472;6.628;2023-04-24T14:36:06;2.40;;;2.10;;
1258;SDS011;619;51.472;6.628;2023-04-24T14:38:34;4.53;;;2.47;;
1258;SDS011;619;51.472;6.628;2023-04-24T14:41:00;4.90;;;2.23;;
1258;SDS011;619;51.472;6.628;2023-04-24T14:43:26;5.17;;;2.13;;
1258;SDS011;619;51.472;6.628;2023-04-24T14:45:54;5.63;;;1.87;;
1258;SDS011;619;51.472;6.628;2023-04-24T14:48:22;1.97;;;1.70;;
1258;SDS011;619;51.472;6.628;2023-04-24T14:50:48;2.00;;;1.50;;
1258;SDS011;619;51.472;6.628;2023-04-24T14:53:18;2.97;;;1.90;;
1258;SDS011;619;51.472;6.628;2023-04-24T14:55:46;5.17;;;1.40;;
1258;SDS011;619;51.472;6.628;2023-04-24T14:58:14;2.30;;;1.73;;
1258;SDS011;619;51.472;6.628;2023-04-24T15:00:42;3.03;;;1.47;;
1258;SDS011;619;51.472;6.628;2023-04-24T15:03:10;2.77;;;1.60;;
1258;SDS011;619;51.472;6.628;2023-04-24T15:05:35;1.40;;;1.20;;
1258;SDS011;619;51.472;6.628;2023-04-24T15:08:04;2.43;;;1.50;;
1258;SDS011;619;51.472;6.628;2023-04-24T15:10:34;4.03;;;1.50;;
1258;SDS011;619;51.472;6.628;2023-04-24T15:13:02;3.93;;;1.47;;
1258;SDS011;619;51.472;6.628;2023-04-24T15:15:27;3.37;;;1.20;;
1258;SDS011;619;51.472;6.628;2023-04-24T15:17:53;2.13;;;1.40;;
1258;SDS011;619;51.472;6.628;2023-04-24T15:20:18;2.27;;;1.23;;
1258;SDS011;619;51.472;6.628;2023-04-24T15:22:44;3.00;;;1.67;;
1258;SDS011;619;51.472;6.628;2023-04-24T15:25:12;2.90;;;1.80;;
1258;SDS011;619;51.472;6.628;2023-04-24T15:27:41;3.47;;;1.60;;
1258;SDS011;619;51.472;6.628;2023-04-24T15:30:13;3.70;;;1.93;;
1258;SDS011;619;51.472;6.628;2023-04-24T15:32:39;3.20;;;1.47;;
1258;SDS011;619;51.472;6.628;2023-04-24T15:35:07;1.90;;;1.43;;
1258;SDS011;619;51.472;6.628;2023-04-24T15:37:33;2.10;;;1.10;;
1258;SDS011;619;51.472;6.628;2023-04-24T15:39:59;2.60;;;1.80;;
1258;SDS011;619;51.472;6.628;2023-04-24T15:42:25;2.37;;;1.40;;
1258;SDS011;619;51.472;6.628;2023-04-24T15:44:53;3.10;;;1.00;;
1258;SDS011;619;51.472;6.628;2023-04-24T15:47:24;2.07;;;1.30;;